No se requiere ningun cuidado especial respecto a la situación metereológica.   -   No hay avisos

Informes METAR

 

KSJC - San Jose, California, USA
Distancia de la estación: NE 14km
Actualización: 15/09/2019 20:53
Muy nuboso
Muy nuboso
 Viento de calm
Viento: Calma
Temperatura: 22°C
Rocío: 13°C
Humedad: 57%
Barómetro: 1012.5 hPa
Nubes: Muy nuboso
Visibilidad: 16 km
Detalles de las nubes: Poco nuboso 335 m
Poco nuboso 3658 m
Muy nuboso 6096 m
2019/09/15 18:53 KSJC 151853Z 00000KT 10SM FEW011 FEW120 BKN200 22/13 A2990 RMK AO2 SLP125 T02220133
KNUQ - Moffett Nas/Mtn, California, USA
Distancia de la estación: N 14km
Actualización: 15/09/2019 20:56

 
Barómetro: 1012.9 hPa
2019/09/15 18:56 KNUQ 151856Z A2991 RMK AO2 SLP132 PWINO $
 
KPAO - Palo Alto, California, USA
Distancia de la estación: NNO 23km
Actualización: 15/09/2019 19:47
NOT Current
Parcialmente nuboso
Parcialmente nuboso
 Viento de ENE
Viento: ENE 11 km/h
Temperatura: 19°C
Rocío: 14°C
Humedad: 73%
Barómetro: 1013.2 hPa
Nubes: Parcialmente nuboso
Visibilidad: 16 km
Detalles de las nubes: Parcialmente nuboso 914 m
2019/09/15 17:47 KPAO 151747Z 06006KT 10SM SCT030 19/14 A2992
KRHV - San Jose/Reid, California, USA
Distancia de la estación: ENE 19km
Actualización: 15/09/2019 20:47
Parcialmente nuboso
Parcialmente nuboso
 Viento de NNO
Viento: NNO 9 km/h
Temperatura: 23°C
Rocío: 11°C
Humedad: 47%
Barómetro: 1012.9 hPa
Nubes: Parcialmente nuboso
Visibilidad: 16 km
Detalles de las nubes: Parcialmente nuboso 4877 m
2019/09/15 18:47 KRHV 151847Z 34005KT 10SM SCT160 23/11 A2991
 
KOAK - Oakland, California, USA
Distancia de la estación: NNO 50km
Actualización: 15/09/2019 20:53
Parcialmente nuboso
Parcialmente nuboso
 Viento de OSO
Viento: OSO 19 km/h
Temperatura: 19°C
Rocío: 13°C
Humedad: 68%
Barómetro: 1013.2 hPa
Nubes: Parcialmente nuboso
Visibilidad: 16 km
Detalles de las nubes: Poco nuboso 244 m
Parcialmente nuboso 457 m
Parcialmente nuboso 7620 m
2019/09/15 18:53 KOAK 151853Z 25010KT 10SM FEW008 SCT015 SCT250 19/13 A2992 RMK AO2 SLP130 T01940133
KSQL - San Carlos Airpo, California, USA
Distancia de la estación: NO 34km
Actualización: 15/09/2019 20:47
Despejado
Despejado
 Viento de SO
Viento: SO 22 km/h
Temperatura: 21°C
Rocío: 13°C
Humedad: 60%
Barómetro: 1013.2 hPa
Nubes: Despejado
Visibilidad: 16 km
2019/09/15 18:47 KSQL 151847Z 23012KT 10SM SKC 21/13 A2992
 
KSFO - San Francisco, California, USA
Distancia de la estación: NO 49km
Actualización: 15/09/2019 20:56
Muy nuboso
Muy nuboso
 Viento de O
Viento: O 30 km/h, Racha: 43 km/h
Temperatura: 21°C
Rocío: 12°C
Humedad: 57%
Barómetro: 1012.5 hPa
Nubes: Muy nuboso
Visibilidad: 16 km
Detalles de las nubes: Poco nuboso 274 m
Muy nuboso 6096 m
2019/09/15 18:56 KSFO 151856Z 26016G23KT 10SM FEW009 BKN200 21/12 A2990 RMK AO2 SLP126 T02110122
KE16 - San Martin, California, USA
Distancia de la estación: ESE 43km
Actualización: 05/08/2019 19:10
NOT Current
Despejado
Despejado
 Viento de ESE
Viento: ESE 19 km/h
Temperatura: 19°C
Rocío: 14°C
Humedad: 73%
Barómetro: 1016.9 hPa
Nubes: Despejado
Visibilidad: 16 km
2019/08/05 17:10 KE16 051710Z AUTO 12010KT 10SM CLR 19/14 A3003 RMK AO2
 
KWVI - Watsonville, California, USA
Distancia de la estación: SSE 44km
Actualización: 13/09/2019 23:53
NOT Current
Despejado
Despejado
 Viento de O
Viento: O 17 km/h
Temperatura: 37°C
Rocío: 4°C
Humedad: 13%
Barómetro: 1013.5 hPa
Nubes: Despejado
Visibilidad: 16 km
2019/09/13 21:53 KWVI 132153Z AUTO 27009KT 10SM CLR 37/04 A2993 RMK AO2 SLP133 T03670039
KHAF - Half Moon Bay, California, USA
Distancia de la estación: ONO 50km
Actualización: 15/09/2019 21:20
Despejado
Despejado
 Viento de SO
Viento: SO 7 km/h
Temperatura: 17°C
Rocío: 14°C
Humedad: 83%
Barómetro: 1013.9 hPa
Nubes: Despejado
Visibilidad: 16 km
2019/09/15 19:20 KHAF 151920Z AUTO 23004KT 10SM CLR 17/14 A2994 RMK AO2
 
KHWD - Hayward, California, USA
Distancia de la estación: N 44km
Actualización: 15/09/2019 20:54
Parcialmente nuboso
Parcialmente nuboso
 Viento de OSO
Viento: OSO 20 km/h
Temperatura: 19°C
Rocío: 13°C
Humedad: 68%
Barómetro: 1012.9 hPa
Nubes: Parcialmente nuboso
Visibilidad: 16 km
Detalles de las nubes: Poco nuboso 914 m
Parcialmente nuboso 6096 m
2019/09/15 18:54 KHWD 151854Z 24011KT 10SM FEW030 SCT200 19/13 A2991 RMK AO2 SLP138 T01890133
KLVK - Livermore, California, USA
Distancia de la estación: NNE 51km
Actualización: 15/09/2019 20:53
Despejado
Despejado
 Viento de OSO
Viento: OSO 11 km/h
Temperatura: 23°C
Rocío: 12°C
Humedad: 50%
Barómetro: 1011.9 hPa
Nubes: Despejado
Visibilidad: 16 km
2019/09/15 18:53 KLVK 151853Z 24006KT 10SM CLR 23/12 A2988 RMK AO2 SLP116 T02330122